• Join FlightAware (Why Join?)
  • Login
  • US Flag 
05:01PM EST


 

Airport Tracker/Info


-or-


 

Live Flight TrackerFlight Track Log ✈ SKW5631 ✈ 21-Jul-2013 ✈ KSFO - KBUR

Flight Track Log - Related Links

Times and Time Zones

All times are in EDT time to prevent confusion due to time zone crossing. See the SKW5631 flight status page for this flight to view local times or setup timezone preferences in your user account.

Time Position Orientation Groundspeed Altitude Reporting Facility
EDT Latitude Longitude Course Direction KTS MPH feet Rate Location/Type
09:57PM 37.6500 -122.3667 135° Southeast 159 183 1,300  Level Northern Cal TRACON
09:58PM 37.7000 -122.3667 360° North 265 305 2,700 900 Climbing Northern Cal TRACON
09:59PM 37.7333 -122.4500 297° West 273 314 3,200 1,500 Climbing Northern Cal TRACON
10:00PM 37.4308 -122.3590 113° Southeast  Level FlightAware Approximate
10:00PM 37.6833 -122.5000 218° Southwest 279 321 5,700  Level Northern Cal TRACON
10:01PM 37.3502 -122.2268 136° Southeast  Level FlightAware Approximate
10:01PM 37.6000 -122.4833 171° South 292 336 7,800  Level Northern Cal TRACON
10:02PM 37.2618 -122.1010 130° Southeast  Level FlightAware Approximate
10:02PM 37.5333 -122.4333 149° Southeast 295 339 10,000  Level Northern Cal TRACON
10:03PM 37.1954 -122.0150 135° Southeast  Level FlightAware Approximate
10:03PM 37.4667 -122.3500 135° Southeast 330 380 11,000  Level Northern Cal TRACON
10:04PM 37.4000 -122.2667 135° Southeast 359 413 12,100 1,260 Climbing Northern Cal TRACON
10:05PM 37.3333 -122.2000 142° Southeast 368 423 13,500 1,500 Climbing Northern Cal TRACON
10:06PM 37.2500 -122.1000 136° Southeast 371 427 15,100 1,320 Climbing Northern Cal TRACON
10:08PM 37.1339 -121.9875 142° Southeast 377 434 16,800 1,320 Climbing Oakland Center
10:09PM 37.0525 -121.8981 139° Southeast 388 447 18,300 1,320 Climbing Oakland Center
10:10PM 36.9714 -121.8122 140° Southeast 384 442 19,600 1,080 Climbing Oakland Center
10:11PM 36.8875 -121.7283 141° Southeast 387 445 20,500 900 Climbing Oakland Center
10:12PM 36.7983 -121.6333 140° Southeast 393 452 21,500 780 Climbing Oakland Center
10:13PM 36.7139 -121.5408 139° Southeast 401 461 22,200 660 Climbing Oakland Center
10:14PM 36.6272 -121.4497 140° Southeast 407 468 22,900 660 Climbing Oakland Center
10:15PM 36.5397 -121.3564 139° Southeast 413 475 23,600 660 Climbing Oakland Center
10:16PM 36.4517 -121.2644 140° Southeast 414 476 24,300 660 Climbing Oakland Center
10:17PM 36.3639 -121.1717 140° Southeast 415 478 25,000 660 Climbing Oakland Center
10:18PM 36.2742 -121.0778 140° Southeast 419 482 25,700 660 Climbing Oakland Center
10:19PM 36.1683 -120.9658 139° Southeast 417 480 26,400 600 Climbing Oakland Center
10:20PM 36.0789 -120.8722 140° Southeast 421 484 27,000 240 Climbing Oakland Center
10:21PM 35.9875 -120.7786 140° Southeast 426 490 27,000  Level Oakland Center
10:22PM 35.8947 -120.6825 140° Southeast 435 501 27,000  Level Oakland Center
10:23PM 35.8003 -120.5847 140° Southeast 443 510 27,000  Level Oakland Center
10:24PM 35.7058 -120.4869 140° Southeast 444 511 27,000  Level Oakland Center
10:25PM 35.6056 -120.3844 140° Southeast 435 501 27,000  Level Los Angeles Center
10:26PM 35.5147 -120.2917 140° Southeast 431 496 27,000  Level Los Angeles Center
10:27PM 35.4217 -120.1956 140° Southeast 436 502 27,000  Level Los Angeles Center
10:28PM 35.3281 -120.1006 140° Southeast 439 505 27,000 -480 Level Los Angeles Center
10:29PM 35.2336 -120.0056 141° Southeast 438 504 26,100 -1,500 Descending Los Angeles Center
10:30PM 35.1389 -119.9106 141° Southeast 439 505 24,000 -2,400 Descending Los Angeles Center
10:31PM 35.0178 -119.7639 135° Southeast 441 507 20,700 -2,400 Descending Los Angeles Center
10:32PM 34.9392 -119.6575 132° Southeast 428 493 18,600 -2,100 Descending Los Angeles Center
10:33PM 34.8611 -119.5508 132° Southeast 424 488 16,400 -1,920 Descending Los Angeles Center
10:34PM 34.7842 -119.4494 133° Southeast 414 476 14,700 -1,680 Descending Los Angeles Center
10:35PM 34.7106 -119.3500 132° Southeast 401 461 13,000 -1,620 Descending Los Angeles Center
10:36PM 34.6389 -119.2508 131° Southeast 395 455 11,400 -960 Descending Los Angeles Center
10:38PM 34.5656 -119.1592 134° Southeast 382 440 11,000 -240 Descending Los Angeles Center
10:39PM 34.4986 -119.0686 132° Southeast 342 394 11,000 -960 Level Los Angeles Center
10:40PM 34.4356 -118.9739 129° Southeast 302 348 9,200 -1,920 Descending Los Angeles Center
10:41PM 34.3881 -118.8989 127° Southeast 286 329 7,200 -1,800 Descending Los Angeles Center
10:42PM 34.3389 -118.8272 130° Southeast 275 316 5,600 -1,140 Descending Los Angeles Center
10:43PM 34.2958 -118.7578 127° Southeast 263 303 4,900 -780 Descending Los Angeles Center
10:44PM 34.2586 -118.7008 128° Southeast 239 275 4,000 -480 Descending Los Angeles Center
10:45PM 34.2222 -118.6458 129° Southeast 222 255 4,000 -60 Level Los Angeles Center
10:46PM 34.2014 -118.5919 115° Southeast 192 221 3,900 -120 Descending Los Angeles Center